sensor_id;sensor_type;location;lat;lon;timestamp;temperature;humidity
22416;DHT22;12204;50.600;4.608;2023-04-24T00:03:28;18.90;68.10
22416;DHT22;12204;50.600;4.608;2023-04-24T00:08:32;18.90;67.90
22416;DHT22;12204;50.600;4.608;2023-04-24T00:13:35;18.90;68.80
22416;DHT22;12204;50.600;4.608;2023-04-24T00:18:40;18.90;68.10
22416;DHT22;12204;50.600;4.608;2023-04-24T00:23:44;18.80;68.10
22416;DHT22;12204;50.600;4.608;2023-04-24T00:28:47;18.90;68.00
22416;DHT22;12204;50.600;4.608;2023-04-24T00:33:52;18.80;67.90
22416;DHT22;12204;50.600;4.608;2023-04-24T00:38:56;18.80;68.00
22416;DHT22;12204;50.600;4.608;2023-04-24T00:43:59;18.80;68.00
22416;DHT22;12204;50.600;4.608;2023-04-24T00:49:04;18.90;68.10
22416;DHT22;12204;50.600;4.608;2023-04-24T00:54:08;18.90;68.40
22416;DHT22;12204;50.600;4.608;2023-04-24T00:59:12;18.80;68.10
22416;DHT22;12204;50.600;4.608;2023-04-24T01:04:17;18.80;68.00
22416;DHT22;12204;50.600;4.608;2023-04-24T01:09:23;18.80;68.10
22416;DHT22;12204;50.600;4.608;2023-04-24T01:14:26;18.80;68.10
22416;DHT22;12204;50.600;4.608;2023-04-24T01:19:31;18.80;68.10
22416;DHT22;12204;50.600;4.608;2023-04-24T01:24:36;18.80;68.00
22416;DHT22;12204;50.600;4.608;2023-04-24T01:29:40;18.80;68.00
22416;DHT22;12204;50.600;4.608;2023-04-24T01:34:45;18.80;68.00
22416;DHT22;12204;50.600;4.608;2023-04-24T01:39:51;18.80;68.20
22416;DHT22;12204;50.600;4.608;2023-04-24T01:44:54;18.80;68.20
22416;DHT22;12204;50.600;4.608;2023-04-24T01:49:58;18.80;68.40
22416;DHT22;12204;50.600;4.608;2023-04-24T01:55:04;18.80;68.20
22416;DHT22;12204;50.600;4.608;2023-04-24T02:00:10;18.80;68.20
22416;DHT22;12204;50.600;4.608;2023-04-24T02:05:15;18.80;68.20
22416;DHT22;12204;50.600;4.608;2023-04-24T02:10:19;18.80;68.30
22416;DHT22;12204;50.600;4.608;2023-04-24T02:15:23;18.80;68.20
22416;DHT22;12204;50.600;4.608;2023-04-24T02:20:27;18.80;68.90
22416;DHT22;12204;50.600;4.608;2023-04-24T02:25:32;18.80;68.20
22416;DHT22;12204;50.600;4.608;2023-04-24T02:30:36;18.80;68.20
22416;DHT22;12204;50.600;4.608;2023-04-24T02:35:39;18.80;68.30
22416;DHT22;12204;50.600;4.608;2023-04-24T02:40:44;18.80;68.20
22416;DHT22;12204;50.600;4.608;2023-04-24T02:45:50;18.80;68.10
22416;DHT22;12204;50.600;4.608;2023-04-24T02:50:53;18.80;68.20
22416;DHT22;12204;50.600;4.608;2023-04-24T02:55:58;18.80;68.20
22416;DHT22;12204;50.600;4.608;2023-04-24T03:01:02;18.70;68.20
22416;DHT22;12204;50.600;4.608;2023-04-24T03:06:06;18.80;68.10
22416;DHT22;12204;50.600;4.608;2023-04-24T03:11:11;18.70;68.10
22416;DHT22;12204;50.600;4.608;2023-04-24T03:16:16;18.70;68.20
22416;DHT22;12204;50.600;4.608;2023-04-24T03:21:21;18.80;68.30
22416;DHT22;12204;50.600;4.608;2023-04-24T03:26:27;18.70;68.30
22416;DHT22;12204;50.600;4.608;2023-04-24T03:31:46;18.70;68.40
22416;DHT22;12204;50.600;4.608;2023-04-24T03:36:50;18.80;68.40
22416;DHT22;12204;50.600;4.608;2023-04-24T03:41:56;18.70;68.20
22416;DHT22;12204;50.600;4.608;2023-04-24T03:47:10;18.70;68.30
22416;DHT22;12204;50.600;4.608;2023-04-24T03:52:13;18.70;68.30
22416;DHT22;12204;50.600;4.608;2023-04-24T03:57:19;18.70;68.40
22416;DHT22;12204;50.600;4.608;2023-04-24T04:02:36;18.70;68.60
22416;DHT22;12204;50.600;4.608;2023-04-24T04:07:39;18.70;68.30
22416;DHT22;12204;50.600;4.608;2023-04-24T04:12:44;18.70;68.30
22416;DHT22;12204;50.600;4.608;2023-04-24T04:17:48;18.70;68.30
22416;DHT22;12204;50.600;4.608;2023-04-24T04:22:52;18.70;68.40
22416;DHT22;12204;50.600;4.608;2023-04-24T04:28:10;18.70;68.30
22416;DHT22;12204;50.600;4.608;2023-04-24T04:33:13;18.70;68.30
22416;DHT22;12204;50.600;4.608;2023-04-24T04:38:19;18.70;68.30
22416;DHT22;12204;50.600;4.608;2023-04-24T04:43:39;18.70;68.30
22416;DHT22;12204;50.600;4.608;2023-04-24T04:48:45;18.70;68.40
22416;DHT22;12204;50.600;4.608;2023-04-24T04:53:49;18.70;68.30
22416;DHT22;12204;50.600;4.608;2023-04-24T04:58:54;18.70;68.30
22416;DHT22;12204;50.600;4.608;2023-04-24T05:04:01;18.70;68.30
22416;DHT22;12204;50.600;4.608;2023-04-24T05:09:05;18.70;68.40
22416;DHT22;12204;50.600;4.608;2023-04-24T05:14:30;18.70;68.40
22416;DHT22;12204;50.600;4.608;2023-04-24T05:19:34;18.70;68.30
22416;DHT22;12204;50.600;4.608;2023-04-24T05:24:41;18.70;68.30
22416;DHT22;12204;50.600;4.608;2023-04-24T05:30:15;18.70;68.40
22416;DHT22;12204;50.600;4.608;2023-04-24T05:35:18;18.70;68.50
22416;DHT22;12204;50.600;4.608;2023-04-24T05:40:22;18.70;68.40
22416;DHT22;12204;50.600;4.608;2023-04-24T05:45:27;18.70;68.30
22416;DHT22;12204;50.600;4.608;2023-04-24T05:50:31;18.70;68.30
22416;DHT22;12204;50.600;4.608;2023-04-24T05:55:37;18.70;68.40
22416;DHT22;12204;50.600;4.608;2023-04-24T06:00:42;18.70;68.40
22416;DHT22;12204;50.600;4.608;2023-04-24T06:05:50;18.60;68.50
22416;DHT22;12204;50.600;4.608;2023-04-24T06:10:55;18.60;68.60
22416;DHT22;12204;50.600;4.608;2023-04-24T06:16:01;18.70;68.60
22416;DHT22;12204;50.600;4.608;2023-04-24T06:21:09;18.60;68.40
22416;DHT22;12204;50.600;4.608;2023-04-24T06:26:12;18.70;68.50
22416;DHT22;12204;50.600;4.608;2023-04-24T06:31:17;18.70;68.50
22416;DHT22;12204;50.600;4.608;2023-04-24T06:36:21;18.70;68.60
22416;DHT22;12204;50.600;4.608;2023-04-24T06:41:25;18.70;68.40
22416;DHT22;12204;50.600;4.608;2023-04-24T06:46:32;18.70;68.40
22416;DHT22;12204;50.600;4.608;2023-04-24T06:51:36;18.70;68.50
22416;DHT22;12204;50.600;4.608;2023-04-24T06:56:39;18.70;68.50
22416;DHT22;12204;50.600;4.608;2023-04-24T07:01:44;18.60;68.50
22416;DHT22;12204;50.600;4.608;2023-04-24T07:06:48;18.70;68.40
22416;DHT22;12204;50.600;4.608;2023-04-24T07:11:53;18.60;68.40
22416;DHT22;12204;50.600;4.608;2023-04-24T07:16:59;18.70;68.40
22416;DHT22;12204;50.600;4.608;2023-04-24T07:22:03;18.70;68.50
22416;DHT22;12204;50.600;4.608;2023-04-24T07:27:06;18.70;68.50
22416;DHT22;12204;50.600;4.608;2023-04-24T07:32:11;18.70;68.30
22416;DHT22;12204;50.600;4.608;2023-04-24T07:37:14;18.60;68.30
22416;DHT22;12204;50.600;4.608;2023-04-24T07:42:18;18.60;68.40
22416;DHT22;12204;50.600;4.608;2023-04-24T07:47:23;18.70;68.50
22416;DHT22;12204;50.600;4.608;2023-04-24T07:52:26;18.70;68.50
22416;DHT22;12204;50.600;4.608;2023-04-24T07:57:29;18.60;68.30
22416;DHT22;12204;50.600;4.608;2023-04-24T08:02:34;18.70;68.30
22416;DHT22;12204;50.600;4.608;2023-04-24T08:07:38;18.70;68.30
22416;DHT22;12204;50.600;4.608;2023-04-24T08:12:44;18.60;68.30
22416;DHT22;12204;50.600;4.608;2023-04-24T08:17:48;18.70;68.40
22416;DHT22;12204;50.600;4.608;2023-04-24T08:22:52;18.70;68.30
22416;DHT22;12204;50.600;4.608;2023-04-24T08:27:56;18.70;68.30
22416;DHT22;12204;50.600;4.608;2023-04-24T08:33:01;18.60;68.30
22416;DHT22;12204;50.600;4.608;2023-04-24T08:38:06;18.60;68.30
22416;DHT22;12204;50.600;4.608;2023-04-24T08:43:11;18.70;68.40
22416;DHT22;12204;50.600;4.608;2023-04-24T08:48:17;18.70;68.60
22416;DHT22;12204;50.600;4.608;2023-04-24T08:53:33;18.70;69.00
22416;DHT22;12204;50.600;4.608;2023-04-24T08:58:37;18.70;68.30
22416;DHT22;12204;50.600;4.608;2023-04-24T09:03:42;18.70;68.30
22416;DHT22;12204;50.600;4.608;2023-04-24T09:08:47;18.70;69.10
22416;DHT22;12204;50.600;4.608;2023-04-24T09:13:53;18.70;68.40
22416;DHT22;12204;50.600;4.608;2023-04-24T09:18:58;18.70;68.60
22416;DHT22;12204;50.600;4.608;2023-04-24T09:24:06;18.70;68.30
22416;DHT22;12204;50.600;4.608;2023-04-24T09:29:14;18.70;68.30
22416;DHT22;12204;50.600;4.608;2023-04-24T09:34:23;18.70;68.40
22416;DHT22;12204;50.600;4.608;2023-04-24T09:39:27;18.70;68.30
22416;DHT22;12204;50.600;4.608;2023-04-24T09:44:34;18.70;69.10
22416;DHT22;12204;50.600;4.608;2023-04-24T09:49:39;18.70;68.20
22416;DHT22;12204;50.600;4.608;2023-04-24T09:54:52;18.70;68.30
22416;DHT22;12204;50.600;4.608;2023-04-24T09:59:57;18.70;68.20
22416;DHT22;12204;50.600;4.608;2023-04-24T10:05:03;18.70;68.20
22416;DHT22;12204;50.600;4.608;2023-04-24T10:10:08;18.80;68.40
22416;DHT22;12204;50.600;4.608;2023-04-24T10:15:12;18.80;68.40
22416;DHT22;12204;50.600;4.608;2023-04-24T10:20:19;18.70;68.20
22416;DHT22;12204;50.600;4.608;2023-04-24T10:25:25;18.70;68.10
22416;DHT22;12204;50.600;4.608;2023-04-24T10:30:31;18.70;68.20
22416;DHT22;12204;50.600;4.608;2023-04-24T10:35:44;18.70;68.30
22416;DHT22;12204;50.600;4.608;2023-04-24T10:40:50;18.70;68.30
22416;DHT22;12204;50.600;4.608;2023-04-24T10:46:00;18.80;68.10
22416;DHT22;12204;50.600;4.608;2023-04-24T10:51:11;18.70;68.00
22416;DHT22;12204;50.600;4.608;2023-04-24T10:56:16;18.70;68.10
22416;DHT22;12204;50.600;4.608;2023-04-24T11:01:24;18.70;68.10
22416;DHT22;12204;50.600;4.608;2023-04-24T11:06:33;18.70;68.20
22416;DHT22;12204;50.600;4.608;2023-04-24T11:11:43;18.70;68.20
22416;DHT22;12204;50.600;4.608;2023-04-24T11:16:52;18.80;68.30
22416;DHT22;12204;50.600;4.608;2023-04-24T11:22:01;18.70;68.10
22416;DHT22;12204;50.600;4.608;2023-04-24T11:27:11;18.70;68.10
22416;DHT22;12204;50.600;4.608;2023-04-24T11:32:27;18.70;68.30
22416;DHT22;12204;50.600;4.608;2023-04-24T11:37:36;18.70;68.40
22416;DHT22;12204;50.600;4.608;2023-04-24T11:42:42;18.70;68.20
22416;DHT22;12204;50.600;4.608;2023-04-24T11:47:47;18.70;68.20
22416;DHT22;12204;50.600;4.608;2023-04-24T11:52:52;18.70;68.20
22416;DHT22;12204;50.600;4.608;2023-04-24T11:57:58;18.80;68.20
22416;DHT22;12204;50.600;4.608;2023-04-24T12:03:07;18.80;68.30
22416;DHT22;12204;50.600;4.608;2023-04-24T12:08:27;18.80;68.20
22416;DHT22;12204;50.600;4.608;2023-04-24T12:13:31;18.80;68.20
22416;DHT22;12204;50.600;4.608;2023-04-24T12:18:34;18.80;68.00
22416;DHT22;12204;50.600;4.608;2023-04-24T12:23:42;18.80;68.00
22416;DHT22;12204;50.600;4.608;2023-04-24T12:28:48;18.80;68.10
22416;DHT22;12204;50.600;4.608;2023-04-24T12:33:52;18.80;68.10
22416;DHT22;12204;50.600;4.608;2023-04-24T12:38:57;18.80;68.20
22416;DHT22;12204;50.600;4.608;2023-04-24T12:44:00;18.80;68.00
22416;DHT22;12204;50.600;4.608;2023-04-24T12:49:04;18.80;68.10
22416;DHT22;12204;50.600;4.608;2023-04-24T12:54:09;18.80;68.20
22416;DHT22;12204;50.600;4.608;2023-04-24T12:59:13;18.80;68.20
22416;DHT22;12204;50.600;4.608;2023-04-24T13:04:17;18.80;68.00
22416;DHT22;12204;50.600;4.608;2023-04-24T13:09:22;18.70;68.10
22416;DHT22;12204;50.600;4.608;2023-04-24T13:14:25;18.70;68.10
22416;DHT22;12204;50.600;4.608;2023-04-24T13:19:29;18.70;68.30
22416;DHT22;12204;50.600;4.608;2023-04-24T13:24:34;18.80;68.40
22416;DHT22;12204;50.600;4.608;2023-04-24T13:29:40;18.70;68.20
22416;DHT22;12204;50.600;4.608;2023-04-24T13:34:44;18.70;68.20
22416;DHT22;12204;50.600;4.608;2023-04-24T13:39:51;18.70;68.40
22416;DHT22;12204;50.600;4.608;2023-04-24T13:44:55;18.70;68.40
22416;DHT22;12204;50.600;4.608;2023-04-24T13:49:59;18.70;68.40
22416;DHT22;12204;50.600;4.608;2023-04-24T13:55:05;18.70;68.30
22416;DHT22;12204;50.600;4.608;2023-04-24T14:00:10;18.70;68.30
22416;DHT22;12204;50.600;4.608;2023-04-24T14:05:15;18.70;68.50
22416;DHT22;12204;50.600;4.608;2023-04-24T14:10:20;18.70;68.60
22416;DHT22;12204;50.600;4.608;2023-04-24T14:15:23;18.70;68.40
22416;DHT22;12204;50.600;4.608;2023-04-24T14:20:27;18.70;68.30
22416;DHT22;12204;50.600;4.608;2023-04-24T14:25:31;18.70;68.40
22416;DHT22;12204;50.600;4.608;2023-04-24T14:30:35;18.70;68.60
22416;DHT22;12204;50.600;4.608;2023-04-24T14:35:39;18.70;68.60
22416;DHT22;12204;50.600;4.608;2023-04-24T14:40:45;18.70;68.50
22416;DHT22;12204;50.600;4.608;2023-04-24T14:45:52;18.70;68.40
22416;DHT22;12204;50.600;4.608;2023-04-24T14:50:55;18.70;68.40
22416;DHT22;12204;50.600;4.608;2023-04-24T14:56:00;18.70;68.40
22416;DHT22;12204;50.600;4.608;2023-04-24T15:01:04;18.70;68.40
22416;DHT22;12204;50.600;4.608;2023-04-24T15:06:08;18.70;68.30
22416;DHT22;12204;50.600;4.608;2023-04-24T15:11:12;18.80;68.20
22416;DHT22;12204;50.600;4.608;2023-04-24T15:16:16;18.80;68.40
22416;DHT22;12204;50.600;4.608;2023-04-24T15:21:19;18.80;68.40
22416;DHT22;12204;50.600;4.608;2023-04-24T15:26:25;18.80;68.50
22416;DHT22;12204;50.600;4.608;2023-04-24T15:31:28;18.80;68.50
22416;DHT22;12204;50.600;4.608;2023-04-24T15:36:32;18.80;68.30
22416;DHT22;12204;50.600;4.608;2023-04-24T15:41:37;18.80;68.40
22416;DHT22;12204;50.600;4.608;2023-04-24T15:46:41;18.80;68.40
22416;DHT22;12204;50.600;4.608;2023-04-24T15:51:44;18.80;68.50
22416;DHT22;12204;50.600;4.608;2023-04-24T15:56:50;18.80;68.40
22416;DHT22;12204;50.600;4.608;2023-04-24T16:01:53;18.80;68.30
22416;DHT22;12204;50.600;4.608;2023-04-24T16:06:57;18.80;68.30
22416;DHT22;12204;50.600;4.608;2023-04-24T16:12:02;18.80;68.40
22416;DHT22;12204;50.600;4.608;2023-04-24T16:17:06;18.80;68.50
22416;DHT22;12204;50.600;4.608;2023-04-24T16:22:09;18.80;68.70
22416;DHT22;12204;50.600;4.608;2023-04-24T16:27:14;18.70;66.80
22416;DHT22;12204;50.600;4.608;2023-04-24T16:32:18;18.60;64.80
22416;DHT22;12204;50.600;4.608;2023-04-24T16:37:21;18.50;64.20
22416;DHT22;12204;50.600;4.608;2023-04-24T16:42:26;18.40;61.30
22416;DHT22;12204;50.600;4.608;2023-04-24T16:47:29;18.60;59.60
22416;DHT22;12204;50.600;4.608;2023-04-24T16:52:33;18.70;58.80
22416;DHT22;12204;50.600;4.608;2023-04-24T16:57:38;18.80;58.70
22416;DHT22;12204;50.600;4.608;2023-04-24T17:02:42;18.80;60.00
22416;DHT22;12204;50.600;4.608;2023-04-24T17:07:49;18.80;60.80
22416;DHT22;12204;50.600;4.608;2023-04-24T17:12:54;18.90;60.50
22416;DHT22;12204;50.600;4.608;2023-04-24T17:17:58;18.80;60.30
22416;DHT22;12204;50.600;4.608;2023-04-24T17:23:01;18.80;60.20
22416;DHT22;12204;50.600;4.608;2023-04-24T17:28:13;18.70;59.80
22416;DHT22;12204;50.600;4.608;2023-04-24T17:33:22;18.70;59.60
22416;DHT22;12204;50.600;4.608;2023-04-24T17:38:27;18.70;60.30
22416;DHT22;12204;50.600;4.608;2023-04-24T17:43:32;18.70;61.20
22416;DHT22;12204;50.600;4.608;2023-04-24T17:48:35;18.80;62.70
22416;DHT22;12204;50.600;4.608;2023-04-24T17:53:41;18.80;63.20
22416;DHT22;12204;50.600;4.608;2023-04-24T17:58:46;18.80;63.40
22416;DHT22;12204;50.600;4.608;2023-04-24T18:03:50;18.80;64.90
22416;DHT22;12204;50.600;4.608;2023-04-24T18:08:54;19.00;66.80
22416;DHT22;12204;50.600;4.608;2023-04-24T18:13:59;19.20;66.50
22416;DHT22;12204;50.600;4.608;2023-04-24T18:19:03;19.40;65.80
22416;DHT22;12204;50.600;4.608;2023-04-24T18:24:06;19.60;64.90
22416;DHT22;12204;50.600;4.608;2023-04-24T18:29:11;19.90;66.60
22416;DHT22;12204;50.600;4.608;2023-04-24T18:34:14;20.10;66.60
22416;DHT22;12204;50.600;4.608;2023-04-24T18:39:18;20.20;65.80
22416;DHT22;12204;50.600;4.608;2023-04-24T18:44:25;20.40;65.60
22416;DHT22;12204;50.600;4.608;2023-04-24T18:49:28;20.50;65.10
22416;DHT22;12204;50.600;4.608;2023-04-24T18:54:32;20.70;64.70
22416;DHT22;12204;50.600;4.608;2023-04-24T18:59:37;20.80;64.50
22416;DHT22;12204;50.600;4.608;2023-04-24T19:04:40;20.80;64.40
22416;DHT22;12204;50.600;4.608;2023-04-24T19:09:44;20.70;64.80
22416;DHT22;12204;50.600;4.608;2023-04-24T19:14:49;20.70;64.80
22416;DHT22;12204;50.600;4.608;2023-04-24T19:19:57;20.70;65.70
22416;DHT22;12204;50.600;4.608;2023-04-24T19:25:00;20.70;66.00
22416;DHT22;12204;50.600;4.608;2023-04-24T19:30:08;20.60;66.50
22416;DHT22;12204;50.600;4.608;2023-04-24T19:35:15;20.60;67.20
22416;DHT22;12204;50.600;4.608;2023-04-24T19:40:18;20.60;67.50
22416;DHT22;12204;50.600;4.608;2023-04-24T19:45:23;20.50;67.50
22416;DHT22;12204;50.600;4.608;2023-04-24T19:50:27;20.40;67.80
22416;DHT22;12204;50.600;4.608;2023-04-24T19:55:38;20.30;67.90
22416;DHT22;12204;50.600;4.608;2023-04-24T20:00:43;20.30;68.20
22416;DHT22;12204;50.600;4.608;2023-04-24T20:05:47;20.20;68.50
22416;DHT22;12204;50.600;4.608;2023-04-24T20:10:51;20.20;68.70
22416;DHT22;12204;50.600;4.608;2023-04-24T20:15:56;20.20;69.20
22416;DHT22;12204;50.600;4.608;2023-04-24T20:21:00;20.10;69.00
22416;DHT22;12204;50.600;4.608;2023-04-24T20:26:04;20.10;69.30
22416;DHT22;12204;50.600;4.608;2023-04-24T20:31:10;20.10;69.50
22416;DHT22;12204;50.600;4.608;2023-04-24T20:36:14;20.20;69.20
22416;DHT22;12204;50.600;4.608;2023-04-24T20:41:17;20.40;68.30
22416;DHT22;12204;50.600;4.608;2023-04-24T20:46:23;20.70;68.40
22416;DHT22;12204;50.600;4.608;2023-04-24T20:51:26;20.80;68.80
22416;DHT22;12204;50.600;4.608;2023-04-24T20:56:30;20.80;68.90
22416;DHT22;12204;50.600;4.608;2023-04-24T21:01:35;20.80;68.80
22416;DHT22;12204;50.600;4.608;2023-04-24T21:06:39;20.80;68.80
22416;DHT22;12204;50.600;4.608;2023-04-24T21:11:42;20.80;68.80
22416;DHT22;12204;50.600;4.608;2023-04-24T21:16:47;20.80;69.00
22416;DHT22;12204;50.600;4.608;2023-04-24T21:21:51;20.80;69.50
22416;DHT22;12204;50.600;4.608;2023-04-24T21:26:54;20.80;70.10
22416;DHT22;12204;50.600;4.608;2023-04-24T21:31:59;20.70;70.10
22416;DHT22;12204;50.600;4.608;2023-04-24T21:37:03;20.70;70.30
22416;DHT22;12204;50.600;4.608;2023-04-24T21:42:07;20.70;70.50
22416;DHT22;12204;50.600;4.608;2023-04-24T21:47:12;20.60;70.60
22416;DHT22;12204;50.600;4.608;2023-04-24T21:52:15;20.60;70.80
22416;DHT22;12204;50.600;4.608;2023-04-24T21:57:18;20.50;71.00
22416;DHT22;12204;50.600;4.608;2023-04-24T22:02:23;20.50;71.10
22416;DHT22;12204;50.600;4.608;2023-04-24T22:07:27;20.50;71.40
22416;DHT22;12204;50.600;4.608;2023-04-24T22:12:31;20.40;71.60
22416;DHT22;12204;50.600;4.608;2023-04-24T22:17:35;20.40;71.70
22416;DHT22;12204;50.600;4.608;2023-04-24T22:22:39;20.40;71.90
22416;DHT22;12204;50.600;4.608;2023-04-24T22:27:43;20.30;72.20
22416;DHT22;12204;50.600;4.608;2023-04-24T22:32:48;20.30;72.50
22416;DHT22;12204;50.600;4.608;2023-04-24T22:37:53;20.30;72.80
22416;DHT22;12204;50.600;4.608;2023-04-24T22:42:57;20.30;73.10
22416;DHT22;12204;50.600;4.608;2023-04-24T22:48:02;20.20;73.10
22416;DHT22;12204;50.600;4.608;2023-04-24T22:53:06;20.20;73.20
22416;DHT22;12204;50.600;4.608;2023-04-24T22:58:10;20.20;73.20
22416;DHT22;12204;50.600;4.608;2023-04-24T23:03:14;20.20;73.00
22416;DHT22;12204;50.600;4.608;2023-04-24T23:08:18;20.30;73.10
22416;DHT22;12204;50.600;4.608;2023-04-24T23:13:21;20.20;73.00
22416;DHT22;12204;50.600;4.608;2023-04-24T23:18:26;20.20;72.80
22416;DHT22;12204;50.600;4.608;2023-04-24T23:23:30;20.20;73.90
22416;DHT22;12204;50.600;4.608;2023-04-24T23:28:33;20.20;73.10
22416;DHT22;12204;50.600;4.608;2023-04-24T23:33:39;20.20;73.10
22416;DHT22;12204;50.600;4.608;2023-04-24T23:38:43;20.30;73.00
22416;DHT22;12204;50.600;4.608;2023-04-24T23:43:51;20.50;72.50
22416;DHT22;12204;50.600;4.608;2023-04-24T23:48:56;20.70;71.40
22416;DHT22;12204;50.600;4.608;2023-04-24T23:53:59;20.90;70.70
22416;DHT22;12204;50.600;4.608;2023-04-24T23:59:03;21.00;70.50
